Startpagina
METAR-TAF:

METAR-TAF

Vliegvelden :

Aeropuerto Internacional de Maiquetía Simón Bolívar

Caracas, Venezuela

breedte: 10-36N, lengte: 066-59W, hoogte: 43 m

Actueel weer

Dit bericht is 1 uur en het 7 minuten geleden gemaakt, om 07:00 UTC
Wind 2 kt uit het oostnoordoosten
Temperatuur 24°C
Vochtigheid 94%
Druk 1011 hPa
Zicht 10 km of meer
Weinig wolken op 1600 ft

METAR: SVMI 210700Z 07002KT 9999 FEW016 24/23 Q1011

Tijdstip: 04:07 (08:07 UTC)

Verwachting

Dit bericht is 4 uur en het 7 minuten geleden gemaakt, om 04:00 UTC
Verwachting geldig van 21 om 06 UTC tot 22 om 06 UTC
Wind 4 kt uit het oostnoordoosten
Zicht 10 km of meer
Gebroken wolken op 1600 ft
Wijzigt naar
van 21 om 06 UTC tot 21 om 10 UTC
Wind 6 kt uit het oosten
Zicht: 9000 m
Gebroken wolken op 1600 ft
lichte motregen

TAF: SVMI 210400Z 2106/2206 07004KT 9999 BKN016 TX31/19Z TN22/08Z BECMG 2106/2110 09006KT 9000 -DZ BKN016

Waarnemingen en weersverwachtingen van meer dan 4000 vliegvelden (METAR en TAF).

De beschikbare stations zijn de gele en rode punten op de kaart.

Ga met uw muis naar het station om de naam te zien.

Klik dan om waarnemingen en weersverwachtingen te zien.

kaart wijzigen: klik op de groene knoppen met een zwart kruis om in te zoomen, op de groene knop met een streepje om uit te zoomen of op de groene pijlen voor aangrenzende kaarten.


METAR-TAF: